Disclaimer

Please do not use the information listed here in-flight or in-navigation, as they are not provided to us by the airports but are provided by volunteers, so they might be outdated.

Search


Regions


Airport information page

Radio informations:
Tower (TWR) - 122.3 MHz
Ground (GND) - 121.8 MHz
Automatic Terminal Information Service (ATIS) - 127.8 MHz

Airport informations:
Latitude: 03° 07' 25.86" N
Longitude: 113° 01' 13.70" E
Elevation: 74 feet - 23 meters
Operating hours: Remarks
Operating agency: Civil government, landing fees and diplomatic clearance may be required
Timezone: UTC+8
Fuel: N/A

Runway information:
17/35 - 9006 x 147 feet< - >2745 x 45 meters

Recent METARs:
WBGB 151000Z VRB03KT 9999 FEW016 BKN150 28/25 Q1008
WBGB 151100Z VRB02KT 9999 FEW016 BKN150 28/25 Q1009
WBGB 151100Z VRB02KT 9999 FEW016 BKN150 28/25 Q1009

Airport on the map: